sensor_id;sensor_type;location;lat;lon;timestamp;temperature;humidity
41080;DHT22;26826;50.718;7.114;2023-12-22T00:06:25;6.00;99.90
41080;DHT22;26826;50.718;7.114;2023-12-22T00:16:25;5.80;99.90
41080;DHT22;26826;50.718;7.114;2023-12-22T00:26:26;6.10;99.90
41080;DHT22;26826;50.718;7.114;2023-12-22T00:36:26;4.70;99.90
41080;DHT22;26826;50.718;7.114;2023-12-22T00:46:27;4.40;99.90
41080;DHT22;26826;50.718;7.114;2023-12-22T00:56:27;4.40;99.90
41080;DHT22;26826;50.718;7.114;2023-12-22T01:06:28;4.60;99.90
41080;DHT22;26826;50.718;7.114;2023-12-22T01:16:28;4.60;99.90
41080;DHT22;26826;50.718;7.114;2023-12-22T01:26:29;4.80;99.90
41080;DHT22;26826;50.718;7.114;2023-12-22T01:36:29;4.80;99.90
41080;DHT22;26826;50.718;7.114;2023-12-22T01:46:29;5.00;99.90
41080;DHT22;26826;50.718;7.114;2023-12-22T01:56:31;5.00;99.90
41080;DHT22;26826;50.718;7.114;2023-12-22T02:06:31;5.10;99.90
41080;DHT22;26826;50.718;7.114;2023-12-22T02:16:38;5.10;99.90
41080;DHT22;26826;50.718;7.114;2023-12-22T02:26:41;5.20;99.90
41080;DHT22;26826;50.718;7.114;2023-12-22T02:36:44;5.20;99.90
41080;DHT22;26826;50.718;7.114;2023-12-22T02:46:44;5.30;99.90
41080;DHT22;26826;50.718;7.114;2023-12-22T02:56:46;5.30;99.90
41080;DHT22;26826;50.718;7.114;2023-12-22T03:06:46;5.30;99.90
41080;DHT22;26826;50.718;7.114;2023-12-22T03:16:47;5.50;99.90
41080;DHT22;26826;50.718;7.114;2023-12-22T03:26:47;6.00;99.90
41080;DHT22;26826;50.718;7.114;2023-12-22T03:36:48;6.20;99.90
41080;DHT22;26826;50.718;7.114;2023-12-22T03:46:49;6.50;99.90
41080;DHT22;26826;50.718;7.114;2023-12-22T03:56:51;6.50;99.90
41080;DHT22;26826;50.718;7.114;2023-12-22T04:06:52;6.50;99.90
41080;DHT22;26826;50.718;7.114;2023-12-22T04:16:52;6.60;99.90
41080;DHT22;26826;50.718;7.114;2023-12-22T04:26:53;6.30;99.90
41080;DHT22;26826;50.718;7.114;2023-12-22T04:36:53;6.10;99.90
41080;DHT22;26826;50.718;7.114;2023-12-22T04:46:54;6.00;99.90
41080;DHT22;26826;50.718;7.114;2023-12-22T04:56:54;5.80;99.90
41080;DHT22;26826;50.718;7.114;2023-12-22T05:06:55;6.00;99.90
41080;DHT22;26826;50.718;7.114;2023-12-22T05:16:55;6.10;99.90
41080;DHT22;26826;50.718;7.114;2023-12-22T05:26:57;6.70;99.90
41080;DHT22;26826;50.718;7.114;2023-12-22T05:36:57;6.80;99.90
41080;DHT22;26826;50.718;7.114;2023-12-22T05:46:58;7.10;99.90
41080;DHT22;26826;50.718;7.114;2023-12-22T05:56:58;7.30;99.90
41080;DHT22;26826;50.718;7.114;2023-12-22T06:06:59;7.50;99.90
41080;DHT22;26826;50.718;7.114;2023-12-22T06:16:59;7.70;99.90
41080;DHT22;26826;50.718;7.114;2023-12-22T06:27:00;7.60;99.90
41080;DHT22;26826;50.718;7.114;2023-12-22T06:37:00;7.80;99.90
41080;DHT22;26826;50.718;7.114;2023-12-22T06:47:00;7.60;99.90
41080;DHT22;26826;50.718;7.114;2023-12-22T06:57:01;7.50;99.90
41080;DHT22;26826;50.718;7.114;2023-12-22T07:07:01;7.60;99.90
41080;DHT22;26826;50.718;7.114;2023-12-22T07:17:02;7.50;99.90
41080;DHT22;26826;50.718;7.114;2023-12-22T07:27:02;7.00;99.90
41080;DHT22;26826;50.718;7.114;2023-12-22T07:37:03;6.80;99.90
41080;DHT22;26826;50.718;7.114;2023-12-22T07:47:05;6.70;99.90
41080;DHT22;26826;50.718;7.114;2023-12-22T07:57:07;6.70;99.90
41080;DHT22;26826;50.718;7.114;2023-12-22T08:07:07;6.60;99.90
41080;DHT22;26826;50.718;7.114;2023-12-22T08:17:08;6.70;99.90
41080;DHT22;26826;50.718;7.114;2023-12-22T08:27:08;7.00;99.90
41080;DHT22;26826;50.718;7.114;2023-12-22T08:37:09;7.30;99.90
41080;DHT22;26826;50.718;7.114;2023-12-22T08:47:09;7.50;99.90
41080;DHT22;26826;50.718;7.114;2023-12-22T08:57:10;7.50;99.90
41080;DHT22;26826;50.718;7.114;2023-12-22T09:07:11;7.70;99.90
41080;DHT22;26826;50.718;7.114;2023-12-22T09:17:11;7.80;99.90
41080;DHT22;26826;50.718;7.114;2023-12-22T09:27:11;8.00;99.90
41080;DHT22;26826;50.718;7.114;2023-12-22T09:37:13;8.10;99.90
41080;DHT22;26826;50.718;7.114;2023-12-22T09:47:13;8.20;99.90
41080;DHT22;26826;50.718;7.114;2023-12-22T09:57:14;8.30;99.90
41080;DHT22;26826;50.718;7.114;2023-12-22T10:07:15;8.50;99.90
41080;DHT22;26826;50.718;7.114;2023-12-22T10:17:16;8.60;99.90
41080;DHT22;26826;50.718;7.114;2023-12-22T10:27:17;8.70;99.90
41080;DHT22;26826;50.718;7.114;2023-12-22T10:37:24;8.60;99.90
41080;DHT22;26826;50.718;7.114;2023-12-22T10:47:24;8.70;99.90
41080;DHT22;26826;50.718;7.114;2023-12-22T10:57:25;8.60;99.90
41080;DHT22;26826;50.718;7.114;2023-12-22T11:07:27;8.50;99.90
41080;DHT22;26826;50.718;7.114;2023-12-22T11:17:28;8.30;99.90
41080;DHT22;26826;50.718;7.114;2023-12-22T11:27:29;8.30;99.90
41080;DHT22;26826;50.718;7.114;2023-12-22T11:37:33;8.40;99.90
41080;DHT22;26826;50.718;7.114;2023-12-22T11:47:35;8.60;99.90
41080;DHT22;26826;50.718;7.114;2023-12-22T11:57:37;8.90;99.90
41080;DHT22;26826;50.718;7.114;2023-12-22T12:07:42;9.10;99.90
41080;DHT22;26826;50.718;7.114;2023-12-22T12:17:45;9.30;99.90
41080;DHT22;26826;50.718;7.114;2023-12-22T12:27:48;9.60;99.90
41080;DHT22;26826;50.718;7.114;2023-12-22T12:37:48;9.70;99.90
41080;DHT22;26826;50.718;7.114;2023-12-22T12:47:58;9.80;99.90
41080;DHT22;26826;50.718;7.114;2023-12-22T12:57:58;9.90;99.90
41080;DHT22;26826;50.718;7.114;2023-12-22T13:08:06;9.90;99.90
41080;DHT22;26826;50.718;7.114;2023-12-22T13:18:06;9.90;99.90
41080;DHT22;26826;50.718;7.114;2023-12-22T13:28:07;9.60;99.90
41080;DHT22;26826;50.718;7.114;2023-12-22T13:38:07;9.20;99.90
41080;DHT22;26826;50.718;7.114;2023-12-22T13:48:09;9.30;99.90
41080;DHT22;26826;50.718;7.114;2023-12-22T13:58:09;9.60;99.90
41080;DHT22;26826;50.718;7.114;2023-12-22T14:08:12;9.70;99.90
41080;DHT22;26826;50.718;7.114;2023-12-22T14:18:13;9.80;99.90
41080;DHT22;26826;50.718;7.114;2023-12-22T14:28:14;9.90;99.90
41080;DHT22;26826;50.718;7.114;2023-12-22T14:38:15;9.80;99.90
41080;DHT22;26826;50.718;7.114;2023-12-22T14:48:15;9.90;99.90
41080;DHT22;26826;50.718;7.114;2023-12-22T14:58:16;9.80;99.90
41080;DHT22;26826;50.718;7.114;2023-12-22T15:08:16;9.80;99.90
41080;DHT22;26826;50.718;7.114;2023-12-22T15:18:17;9.80;99.90
41080;DHT22;26826;50.718;7.114;2023-12-22T15:38:21;9.40;99.90
41080;DHT22;26826;50.718;7.114;2023-12-22T15:48:21;9.30;99.90
41080;DHT22;26826;50.718;7.114;2023-12-22T15:58:21;9.20;99.90
41080;DHT22;26826;50.718;7.114;2023-12-22T16:08:22;9.20;99.90
41080;DHT22;26826;50.718;7.114;2023-12-22T16:18:23;9.30;99.90
41080;DHT22;26826;50.718;7.114;2023-12-22T16:28:23;9.30;99.90
41080;DHT22;26826;50.718;7.114;2023-12-22T16:38:24;9.20;99.90
41080;DHT22;26826;50.718;7.114;2023-12-22T16:48:24;9.30;99.90
41080;DHT22;26826;50.718;7.114;2023-12-22T16:58:25;9.30;99.90
41080;DHT22;26826;50.718;7.114;2023-12-22T17:08:25;9.30;99.90
41080;DHT22;26826;50.718;7.114;2023-12-22T17:18:26;9.40;99.90
41080;DHT22;26826;50.718;7.114;2023-12-22T17:28:26;9.40;99.90
41080;DHT22;26826;50.718;7.114;2023-12-22T17:38:27;9.30;99.90
41080;DHT22;26826;50.718;7.114;2023-12-22T17:48:27;9.40;99.90
41080;DHT22;26826;50.718;7.114;2023-12-22T17:58:28;9.50;99.90
41080;DHT22;26826;50.718;7.114;2023-12-22T18:08:28;9.60;99.90
41080;DHT22;26826;50.718;7.114;2023-12-22T18:18:28;9.60;99.90
41080;DHT22;26826;50.718;7.114;2023-12-22T18:28:30;9.70;99.90
41080;DHT22;26826;50.718;7.114;2023-12-22T18:38:30;9.80;99.90
41080;DHT22;26826;50.718;7.114;2023-12-22T18:48:30;9.80;99.90
41080;DHT22;26826;50.718;7.114;2023-12-22T18:58:31;9.90;99.90
41080;DHT22;26826;50.718;7.114;2023-12-22T19:08:31;9.80;99.90
41080;DHT22;26826;50.718;7.114;2023-12-22T19:18:32;9.50;99.90
41080;DHT22;26826;50.718;7.114;2023-12-22T19:28:32;9.50;99.90
41080;DHT22;26826;50.718;7.114;2023-12-22T19:38:33;9.60;99.90
41080;DHT22;26826;50.718;7.114;2023-12-22T19:48:33;9.60;99.90
41080;DHT22;26826;50.718;7.114;2023-12-22T19:58:34;9.70;99.90
41080;DHT22;26826;50.718;7.114;2023-12-22T20:08:34;9.80;99.90
41080;DHT22;26826;50.718;7.114;2023-12-22T20:18:35;9.70;99.90
41080;DHT22;26826;50.718;7.114;2023-12-22T20:28:35;9.70;99.90
41080;DHT22;26826;50.718;7.114;2023-12-22T20:38:36;9.60;99.90
41080;DHT22;26826;50.718;7.114;2023-12-22T20:48:37;9.70;99.90
41080;DHT22;26826;50.718;7.114;2023-12-22T20:58:37;9.60;99.90
41080;DHT22;26826;50.718;7.114;2023-12-22T21:08:38;9.70;99.90
41080;DHT22;26826;50.718;7.114;2023-12-22T21:18:38;9.70;99.90
41080;DHT22;26826;50.718;7.114;2023-12-22T21:28:39;9.70;99.90
41080;DHT22;26826;50.718;7.114;2023-12-22T21:59:43;9.10;99.90
41080;DHT22;26826;50.718;7.114;2023-12-22T22:09:43;9.40;99.90
41080;DHT22;26826;50.718;7.114;2023-12-22T22:19:44;9.50;99.90
41080;DHT22;26826;50.718;7.114;2023-12-22T22:29:44;9.50;99.90
41080;DHT22;26826;50.718;7.114;2023-12-22T22:39:45;9.50;99.90
41080;DHT22;26826;50.718;7.114;2023-12-22T22:49:46;8.90;99.90
41080;DHT22;26826;50.718;7.114;2023-12-22T22:59:46;7.30;99.90
41080;DHT22;26826;50.718;7.114;2023-12-22T23:09:47;7.10;99.90
41080;DHT22;26826;50.718;7.114;2023-12-22T23:19:47;7.10;99.90
41080;DHT22;26826;50.718;7.114;2023-12-22T23:29:48;7.00;99.90
41080;DHT22;26826;50.718;7.114;2023-12-22T23:39:48;6.90;99.90
41080;DHT22;26826;50.718;7.114;2023-12-22T23:49:49;6.90;99.90
41080;DHT22;26826;50.718;7.114;2023-12-22T23:59:50;7.00;99.90
